Hauptseite
METAR-TAF:

METAR-TAF

Flughäfen :

Aviano, Italien

Aviano Air Base

Breite: 46-02N, Länge: 012-36E, Höhe: 128 m

Beobachtung

Neuester Wetterbericht von vor 55 Minuten, um 18:55 UTC
Wind 5 kt aus Nord/Nordost
Temperatur 4°C
Luftfeuchtigkeit 75%
Luftdruck 1014 hPa
Sichtweite 10 km oder mehr
Aufgelockert bewölkt in der Höhe von 8000 ft

METAR: LIPA 221855Z 03005KT 9999 SCT080 04/M00 Q1014 RMK SCT VIS MIN 9999 WIND THR05 /////KT WIND THR23 /////KT A2995 BLU

Zeit: 20:50 (19:50 UTC)

Prognose

Neuester Wetterbericht von vor 2 Stunden und 50 Minuten, um 17:00 UTC
Gültige Prognose vom 22 um 18 UTC bis 23 um 03 UTC
Wind 5 kt aus unterschiedlichen Richtungen
Sichtweite 10 km oder mehr
Leicht bewölkt in der Höhe von 5000 ft

TAF: LIPA 221700Z 2218/2303 VRB05KT 9999 FEW050

Wetterbeobachtungen und Prognosen von mehr als 4000 Flughäfen (METAR und TAF Bericht).

Die verfügbaren Stationen werden durch gelbe und rote Markierungen auf der Karte dargestellt.

Führen Sie die Maus auf sie, um den Namen der Station zu sehen.

Darauf klicken, um die Beobachtung von Wetterbeobachtungen und Prognosen zu sehen.

Um die Karte zu ändern : klicken Sie auf den grünen Tasten mit einem schwarzen Kreuz Zum Vergrößern, auf den grünen Button mit einem Gedankenstrich zu verkleinern, oder auf die grünen Pfeile für benachbarte Karten.


METAR-TAF: